sensor_id;sensor_type;location;lat;lon;timestamp;P1;durP1;ratioP1;P2;durP2;ratioP2
13552;SDS011;6847;48.830;9.116;2022-07-22T00:01:09;0.10;;;0.10;;
13552;SDS011;6847;48.830;9.116;2022-07-22T00:03:58;0.10;;;0.10;;
13552;SDS011;6847;48.830;9.116;2022-07-22T00:06:43;0.10;;;0.10;;
13552;SDS011;6847;48.830;9.116;2022-07-22T00:09:31;0.10;;;0.10;;
13552;SDS011;6847;48.830;9.116;2022-07-22T00:12:17;0.10;;;0.10;;
13552;SDS011;6847;48.830;9.116;2022-07-22T00:15:04;0.10;;;0.10;;
13552;SDS011;6847;48.830;9.116;2022-07-22T00:17:51;0.10;;;0.10;;
13552;SDS011;6847;48.830;9.116;2022-07-22T00:20:37;0.10;;;0.10;;
13552;SDS011;6847;48.830;9.116;2022-07-22T00:23:24;0.10;;;0.10;;
13552;SDS011;6847;48.830;9.116;2022-07-22T00:26:11;0.10;;;0.10;;
13552;SDS011;6847;48.830;9.116;2022-07-22T00:28:57;0.10;;;0.10;;
13552;SDS011;6847;48.830;9.116;2022-07-22T00:31:43;0.10;;;0.10;;
13552;SDS011;6847;48.830;9.116;2022-07-22T00:34:28;0.10;;;0.10;;
13552;SDS011;6847;48.830;9.116;2022-07-22T00:37:17;0.10;;;0.10;;
13552;SDS011;6847;48.830;9.116;2022-07-22T00:40:11;0.10;;;0.10;;
13552;SDS011;6847;48.830;9.116;2022-07-22T00:42:58;0.10;;;0.10;;
13552;SDS011;6847;48.830;9.116;2022-07-22T00:45:49;0.10;;;0.10;;
13552;SDS011;6847;48.830;9.116;2022-07-22T00:48:36;0.10;;;0.10;;
13552;SDS011;6847;48.830;9.116;2022-07-22T00:51:22;0.10;;;0.10;;
13552;SDS011;6847;48.830;9.116;2022-07-22T00:54:08;0.10;;;0.10;;
13552;SDS011;6847;48.830;9.116;2022-07-22T00:56:54;0.10;;;0.10;;
13552;SDS011;6847;48.830;9.116;2022-07-22T00:59:41;0.10;;;0.10;;
13552;SDS011;6847;48.830;9.116;2022-07-22T01:02:30;0.10;;;0.10;;
13552;SDS011;6847;48.830;9.116;2022-07-22T01:05:22;0.10;;;0.10;;
13552;SDS011;6847;48.830;9.116;2022-07-22T01:08:08;0.10;;;0.10;;
13552;SDS011;6847;48.830;9.116;2022-07-22T01:10:53;0.10;;;0.10;;
13552;SDS011;6847;48.830;9.116;2022-07-22T01:13:39;0.10;;;0.10;;
13552;SDS011;6847;48.830;9.116;2022-07-22T01:16:26;0.10;;;0.10;;
13552;SDS011;6847;48.830;9.116;2022-07-22T01:19:12;0.10;;;0.10;;
13552;SDS011;6847;48.830;9.116;2022-07-22T01:22:01;0.10;;;0.10;;
13552;SDS011;6847;48.830;9.116;2022-07-22T01:24:47;0.10;;;0.10;;
13552;SDS011;6847;48.830;9.116;2022-07-22T01:27:33;0.10;;;0.10;;
13552;SDS011;6847;48.830;9.116;2022-07-22T01:30:18;0.10;;;0.10;;
13552;SDS011;6847;48.830;9.116;2022-07-22T01:33:04;0.10;;;0.10;;
13552;SDS011;6847;48.830;9.116;2022-07-22T01:35:53;0.10;;;0.10;;
13552;SDS011;6847;48.830;9.116;2022-07-22T01:38:42;0.10;;;0.10;;
13552;SDS011;6847;48.830;9.116;2022-07-22T01:41:27;0.10;;;0.10;;
13552;SDS011;6847;48.830;9.116;2022-07-22T01:44:13;0.10;;;0.10;;
13552;SDS011;6847;48.830;9.116;2022-07-22T01:46:59;0.10;;;0.10;;
13552;SDS011;6847;48.830;9.116;2022-07-22T01:49:45;0.10;;;0.10;;
13552;SDS011;6847;48.830;9.116;2022-07-22T01:52:30;0.10;;;0.10;;
13552;SDS011;6847;48.830;9.116;2022-07-22T01:55:18;0.10;;;0.10;;
13552;SDS011;6847;48.830;9.116;2022-07-22T01:58:06;0.10;;;0.10;;
13552;SDS011;6847;48.830;9.116;2022-07-22T02:00:53;0.10;;;0.10;;
13552;SDS011;6847;48.830;9.116;2022-07-22T02:03:39;0.10;;;0.10;;
13552;SDS011;6847;48.830;9.116;2022-07-22T02:06:25;0.10;;;0.10;;
13552;SDS011;6847;48.830;9.116;2022-07-22T02:09:11;0.15;;;0.15;;
13552;SDS011;6847;48.830;9.116;2022-07-22T02:11:58;0.10;;;0.10;;
13552;SDS011;6847;48.830;9.116;2022-07-22T02:14:43;0.10;;;0.10;;
13552;SDS011;6847;48.830;9.116;2022-07-22T02:17:29;0.10;;;0.10;;
13552;SDS011;6847;48.830;9.116;2022-07-22T02:20:16;0.10;;;0.10;;
13552;SDS011;6847;48.830;9.116;2022-07-22T02:23:02;0.10;;;0.10;;
13552;SDS011;6847;48.830;9.116;2022-07-22T02:25:47;0.10;;;0.10;;
13552;SDS011;6847;48.830;9.116;2022-07-22T02:28:34;0.10;;;0.10;;
13552;SDS011;6847;48.830;9.116;2022-07-22T02:31:20;0.10;;;0.10;;
13552;SDS011;6847;48.830;9.116;2022-07-22T02:34:09;0.10;;;0.10;;
13552;SDS011;6847;48.830;9.116;2022-07-22T02:36:56;0.10;;;0.10;;
13552;SDS011;6847;48.830;9.116;2022-07-22T02:39:41;0.10;;;0.10;;
13552;SDS011;6847;48.830;9.116;2022-07-22T02:42:30;0.10;;;0.10;;
13552;SDS011;6847;48.830;9.116;2022-07-22T02:45:17;0.10;;;0.10;;
13552;SDS011;6847;48.830;9.116;2022-07-22T02:48:03;0.13;;;0.13;;
13552;SDS011;6847;48.830;9.116;2022-07-22T02:50:49;0.10;;;0.10;;
13552;SDS011;6847;48.830;9.116;2022-07-22T02:53:36;0.10;;;0.10;;
13552;SDS011;6847;48.830;9.116;2022-07-22T02:56:22;0.10;;;0.10;;
13552;SDS011;6847;48.830;9.116;2022-07-22T02:59:07;0.10;;;0.10;;
13552;SDS011;6847;48.830;9.116;2022-07-22T03:01:54;0.10;;;0.10;;
13552;SDS011;6847;48.830;9.116;2022-07-22T03:04:40;0.10;;;0.10;;
13552;SDS011;6847;48.830;9.116;2022-07-22T03:07:26;0.10;;;0.10;;
13552;SDS011;6847;48.830;9.116;2022-07-22T03:10:12;0.10;;;0.10;;
13552;SDS011;6847;48.830;9.116;2022-07-22T03:12:58;0.10;;;0.10;;
13552;SDS011;6847;48.830;9.116;2022-07-22T03:15:44;0.10;;;0.10;;
13552;SDS011;6847;48.830;9.116;2022-07-22T03:18:33;0.10;;;0.10;;
13552;SDS011;6847;48.830;9.116;2022-07-22T03:21:19;0.10;;;0.10;;
13552;SDS011;6847;48.830;9.116;2022-07-22T03:24:06;0.10;;;0.10;;
13552;SDS011;6847;48.830;9.116;2022-07-22T03:26:51;0.10;;;0.10;;
13552;SDS011;6847;48.830;9.116;2022-07-22T03:29:38;0.10;;;0.10;;
13552;SDS011;6847;48.830;9.116;2022-07-22T03:32:23;0.10;;;0.10;;
13552;SDS011;6847;48.830;9.116;2022-07-22T03:35:11;0.10;;;0.10;;
13552;SDS011;6847;48.830;9.116;2022-07-22T03:38:06;0.10;;;0.10;;
13552;SDS011;6847;48.830;9.116;2022-07-22T03:40:53;0.10;;;0.10;;
13552;SDS011;6847;48.830;9.116;2022-07-22T03:43:46;0.10;;;0.10;;
13552;SDS011;6847;48.830;9.116;2022-07-22T03:46:32;0.10;;;0.10;;
13552;SDS011;6847;48.830;9.116;2022-07-22T03:49:18;0.10;;;0.10;;
13552;SDS011;6847;48.830;9.116;2022-07-22T03:52:06;0.10;;;0.10;;
13552;SDS011;6847;48.830;9.116;2022-07-22T03:54:51;0.10;;;0.10;;
13552;SDS011;6847;48.830;9.116;2022-07-22T03:57:39;0.10;;;0.10;;
13552;SDS011;6847;48.830;9.116;2022-07-22T04:00:25;0.10;;;0.10;;
13552;SDS011;6847;48.830;9.116;2022-07-22T04:03:11;0.10;;;0.10;;
13552;SDS011;6847;48.830;9.116;2022-07-22T04:05:56;0.10;;;0.10;;
13552;SDS011;6847;48.830;9.116;2022-07-22T04:08:44;0.10;;;0.10;;
13552;SDS011;6847;48.830;9.116;2022-07-22T04:11:30;0.10;;;0.10;;
13552;SDS011;6847;48.830;9.116;2022-07-22T04:14:17;0.10;;;0.10;;
13552;SDS011;6847;48.830;9.116;2022-07-22T04:17:03;0.10;;;0.10;;
13552;SDS011;6847;48.830;9.116;2022-07-22T04:19:49;0.20;;;0.20;;
13552;SDS011;6847;48.830;9.116;2022-07-22T04:22:34;0.10;;;0.10;;
13552;SDS011;6847;48.830;9.116;2022-07-22T04:25:21;0.10;;;0.10;;
13552;SDS011;6847;48.830;9.116;2022-07-22T04:28:11;0.10;;;0.10;;
13552;SDS011;6847;48.830;9.116;2022-07-22T04:30:58;0.10;;;0.10;;
13552;SDS011;6847;48.830;9.116;2022-07-22T04:33:44;0.10;;;0.10;;
13552;SDS011;6847;48.830;9.116;2022-07-22T04:36:29;0.00;;;0.00;;
13552;SDS011;6847;48.830;9.116;2022-07-22T04:39:16;0.13;;;0.13;;
13552;SDS011;6847;48.830;9.116;2022-07-22T04:42:03;0.10;;;0.10;;
13552;SDS011;6847;48.830;9.116;2022-07-22T04:44:51;0.10;;;0.10;;
13552;SDS011;6847;48.830;9.116;2022-07-22T04:47:36;0.10;;;0.10;;
13552;SDS011;6847;48.830;9.116;2022-07-22T04:50:22;0.10;;;0.10;;
13552;SDS011;6847;48.830;9.116;2022-07-22T04:53:07;0.10;;;0.10;;
13552;SDS011;6847;48.830;9.116;2022-07-22T04:55:54;0.10;;;0.10;;
13552;SDS011;6847;48.830;9.116;2022-07-22T04:58:41;0.10;;;0.10;;
13552;SDS011;6847;48.830;9.116;2022-07-22T05:01:27;0.10;;;0.10;;
13552;SDS011;6847;48.830;9.116;2022-07-22T05:04:13;0.20;;;0.20;;
13552;SDS011;6847;48.830;9.116;2022-07-22T05:06:58;0.10;;;0.10;;
13552;SDS011;6847;48.830;9.116;2022-07-22T05:09:44;0.10;;;0.10;;
13552;SDS011;6847;48.830;9.116;2022-07-22T05:12:30;0.10;;;0.10;;
13552;SDS011;6847;48.830;9.116;2022-07-22T05:15:18;0.10;;;0.10;;
13552;SDS011;6847;48.830;9.116;2022-07-22T05:18:03;0.10;;;0.10;;
13552;SDS011;6847;48.830;9.116;2022-07-22T05:20:49;0.10;;;0.10;;
13552;SDS011;6847;48.830;9.116;2022-07-22T05:23:35;0.15;;;0.15;;
13552;SDS011;6847;48.830;9.116;2022-07-22T05:26:21;0.10;;;0.10;;
13552;SDS011;6847;48.830;9.116;2022-07-22T05:29:10;0.10;;;0.10;;
13552;SDS011;6847;48.830;9.116;2022-07-22T05:32:00;0.10;;;0.10;;
13552;SDS011;6847;48.830;9.116;2022-07-22T05:34:46;0.10;;;0.10;;
13552;SDS011;6847;48.830;9.116;2022-07-22T05:37:34;0.10;;;0.10;;
13552;SDS011;6847;48.830;9.116;2022-07-22T05:40:21;0.10;;;0.10;;
13552;SDS011;6847;48.830;9.116;2022-07-22T05:43:07;0.15;;;0.15;;
13552;SDS011;6847;48.830;9.116;2022-07-22T05:45:53;0.10;;;0.10;;
13552;SDS011;6847;48.830;9.116;2022-07-22T05:48:44;0.10;;;0.10;;
13552;SDS011;6847;48.830;9.116;2022-07-22T05:51:38;0.15;;;0.15;;
13552;SDS011;6847;48.830;9.116;2022-07-22T05:54:25;0.10;;;0.10;;
13552;SDS011;6847;48.830;9.116;2022-07-22T05:57:12;0.10;;;0.10;;
13552;SDS011;6847;48.830;9.116;2022-07-22T06:00:01;0.10;;;0.10;;
13552;SDS011;6847;48.830;9.116;2022-07-22T06:02:54;0.10;;;0.10;;
13552;SDS011;6847;48.830;9.116;2022-07-22T06:05:44;0.10;;;0.10;;
13552;SDS011;6847;48.830;9.116;2022-07-22T06:08:32;0.10;;;0.10;;
13552;SDS011;6847;48.830;9.116;2022-07-22T06:11:20;0.10;;;0.10;;
13552;SDS011;6847;48.830;9.116;2022-07-22T06:14:06;0.10;;;0.10;;
13552;SDS011;6847;48.830;9.116;2022-07-22T06:16:58;0.10;;;0.10;;
13552;SDS011;6847;48.830;9.116;2022-07-22T06:19:47;0.10;;;0.10;;
13552;SDS011;6847;48.830;9.116;2022-07-22T06:22:38;0.10;;;0.10;;
13552;SDS011;6847;48.830;9.116;2022-07-22T06:25:30;0.17;;;0.17;;
13552;SDS011;6847;48.830;9.116;2022-07-22T06:28:17;0.20;;;0.20;;
13552;SDS011;6847;48.830;9.116;2022-07-22T06:31:03;0.10;;;0.10;;
13552;SDS011;6847;48.830;9.116;2022-07-22T06:34:01;0.10;;;0.10;;
13552;SDS011;6847;48.830;9.116;2022-07-22T06:36:49;0.10;;;0.10;;
13552;SDS011;6847;48.830;9.116;2022-07-22T06:39:51;0.10;;;0.10;;
13552;SDS011;6847;48.830;9.116;2022-07-22T06:42:38;0.10;;;0.10;;
13552;SDS011;6847;48.830;9.116;2022-07-22T06:45:26;0.10;;;0.10;;
13552;SDS011;6847;48.830;9.116;2022-07-22T06:48:15;0.13;;;0.13;;
13552;SDS011;6847;48.830;9.116;2022-07-22T06:51:01;0.17;;;0.17;;
13552;SDS011;6847;48.830;9.116;2022-07-22T06:53:47;1.38;;;1.35;;
13552;SDS011;6847;48.830;9.116;2022-07-22T06:56:38;0.10;;;0.10;;
13552;SDS011;6847;48.830;9.116;2022-07-22T06:59:39;0.10;;;0.10;;
13552;SDS011;6847;48.830;9.116;2022-07-22T07:02:28;0.20;;;0.20;;
13552;SDS011;6847;48.830;9.116;2022-07-22T07:05:15;0.10;;;0.10;;
13552;SDS011;6847;48.830;9.116;2022-07-22T07:08:03;0.13;;;0.13;;
13552;SDS011;6847;48.830;9.116;2022-07-22T07:11:03;0.50;;;0.50;;
13552;SDS011;6847;48.830;9.116;2022-07-22T07:13:55;0.47;;;0.47;;
13552;SDS011;6847;48.830;9.116;2022-07-22T07:16:40;0.35;;;0.35;;
13552;SDS011;6847;48.830;9.116;2022-07-22T07:19:28;0.10;;;0.10;;
13552;SDS011;6847;48.830;9.116;2022-07-22T07:22:15;0.10;;;0.10;;
13552;SDS011;6847;48.830;9.116;2022-07-22T07:25:03;0.47;;;0.35;;
13552;SDS011;6847;48.830;9.116;2022-07-22T07:27:50;0.20;;;0.20;;
13552;SDS011;6847;48.830;9.116;2022-07-22T07:30:37;0.10;;;0.10;;
13552;SDS011;6847;48.830;9.116;2022-07-22T07:33:23;0.15;;;0.15;;
13552;SDS011;6847;48.830;9.116;2022-07-22T07:36:09;0.20;;;0.20;;
13552;SDS011;6847;48.830;9.116;2022-07-22T07:38:55;0.20;;;0.20;;
13552;SDS011;6847;48.830;9.116;2022-07-22T07:41:40;0.65;;;0.65;;
13552;SDS011;6847;48.830;9.116;2022-07-22T07:44:27;0.20;;;0.20;;
13552;SDS011;6847;48.830;9.116;2022-07-22T07:47:14;0.30;;;0.30;;
13552;SDS011;6847;48.830;9.116;2022-07-22T07:50:03;0.10;;;0.10;;
13552;SDS011;6847;48.830;9.116;2022-07-22T07:52:50;0.50;;;0.47;;
13552;SDS011;6847;48.830;9.116;2022-07-22T07:55:38;0.20;;;0.20;;
13552;SDS011;6847;48.830;9.116;2022-07-22T07:58:42;0.20;;;0.20;;
13552;SDS011;6847;48.830;9.116;2022-07-22T08:01:37;0.25;;;0.25;;
13552;SDS011;6847;48.830;9.116;2022-07-22T08:04:24;0.10;;;0.10;;
13552;SDS011;6847;48.830;9.116;2022-07-22T08:07:12;0.10;;;0.10;;
13552;SDS011;6847;48.830;9.116;2022-07-22T08:09:58;0.20;;;0.20;;
13552;SDS011;6847;48.830;9.116;2022-07-22T08:12:48;0.20;;;0.20;;
13552;SDS011;6847;48.830;9.116;2022-07-22T08:15:35;0.10;;;0.10;;
13552;SDS011;6847;48.830;9.116;2022-07-22T08:18:20;0.13;;;0.13;;
13552;SDS011;6847;48.830;9.116;2022-07-22T08:21:08;0.10;;;0.10;;
13552;SDS011;6847;48.830;9.116;2022-07-22T08:23:53;0.10;;;0.10;;
13552;SDS011;6847;48.830;9.116;2022-07-22T08:26:40;0.20;;;0.20;;
13552;SDS011;6847;48.830;9.116;2022-07-22T08:29:27;0.25;;;0.25;;
13552;SDS011;6847;48.830;9.116;2022-07-22T08:32:13;0.85;;;0.85;;
13552;SDS011;6847;48.830;9.116;2022-07-22T08:35:00;0.10;;;0.10;;
13552;SDS011;6847;48.830;9.116;2022-07-22T08:37:51;0.20;;;0.20;;
13552;SDS011;6847;48.830;9.116;2022-07-22T08:40:37;0.60;;;0.60;;
13552;SDS011;6847;48.830;9.116;2022-07-22T08:43:24;0.20;;;0.20;;
13552;SDS011;6847;48.830;9.116;2022-07-22T08:46:10;0.40;;;0.40;;
13552;SDS011;6847;48.830;9.116;2022-07-22T08:48:56;0.20;;;0.20;;
13552;SDS011;6847;48.830;9.116;2022-07-22T08:51:46;0.20;;;0.20;;
13552;SDS011;6847;48.830;9.116;2022-07-22T08:54:35;0.20;;;0.20;;
13552;SDS011;6847;48.830;9.116;2022-07-22T08:57:21;0.20;;;0.20;;
13552;SDS011;6847;48.830;9.116;2022-07-22T09:00:09;0.30;;;0.30;;
13552;SDS011;6847;48.830;9.116;2022-07-22T09:02:57;0.30;;;0.30;;
13552;SDS011;6847;48.830;9.116;2022-07-22T09:05:42;0.30;;;0.30;;
13552;SDS011;6847;48.830;9.116;2022-07-22T09:08:28;0.47;;;0.47;;
13552;SDS011;6847;48.830;9.116;2022-07-22T09:11:22;0.30;;;0.30;;
13552;SDS011;6847;48.830;9.116;2022-07-22T09:14:12;0.30;;;0.30;;
13552;SDS011;6847;48.830;9.116;2022-07-22T09:16:59;0.38;;;0.38;;
13552;SDS011;6847;48.830;9.116;2022-07-22T09:19:45;0.30;;;0.30;;
13552;SDS011;6847;48.830;9.116;2022-07-22T09:22:32;0.40;;;0.40;;
13552;SDS011;6847;48.830;9.116;2022-07-22T09:25:21;0.30;;;0.30;;
13552;SDS011;6847;48.830;9.116;2022-07-22T09:28:12;0.30;;;0.30;;
13552;SDS011;6847;48.830;9.116;2022-07-22T09:30:59;0.30;;;0.30;;
13552;SDS011;6847;48.830;9.116;2022-07-22T09:33:45;0.28;;;0.28;;
13552;SDS011;6847;48.830;9.116;2022-07-22T09:36:36;0.35;;;0.35;;
13552;SDS011;6847;48.830;9.116;2022-07-22T09:39:39;0.40;;;0.40;;
13552;SDS011;6847;48.830;9.116;2022-07-22T09:42:24;0.40;;;0.40;;
13552;SDS011;6847;48.830;9.116;2022-07-22T09:45:35;0.38;;;0.38;;
13552;SDS011;6847;48.830;9.116;2022-07-22T09:48:28;0.30;;;0.30;;
13552;SDS011;6847;48.830;9.116;2022-07-22T09:51:19;0.30;;;0.30;;
13552;SDS011;6847;48.830;9.116;2022-07-22T09:54:07;0.30;;;0.30;;
13552;SDS011;6847;48.830;9.116;2022-07-22T09:56:56;0.20;;;0.20;;
13552;SDS011;6847;48.830;9.116;2022-07-22T09:59:46;0.40;;;0.40;;
13552;SDS011;6847;48.830;9.116;2022-07-22T10:02:39;0.35;;;0.35;;
13552;SDS011;6847;48.830;9.116;2022-07-22T10:05:28;0.20;;;0.20;;
13552;SDS011;6847;48.830;9.116;2022-07-22T10:08:17;0.30;;;0.30;;
13552;SDS011;6847;48.830;9.116;2022-07-22T10:11:05;0.30;;;0.30;;
13552;SDS011;6847;48.830;9.116;2022-07-22T10:13:53;0.40;;;0.40;;
13552;SDS011;6847;48.830;9.116;2022-07-22T10:16:40;0.40;;;0.40;;
13552;SDS011;6847;48.830;9.116;2022-07-22T10:19:29;0.40;;;0.40;;
13552;SDS011;6847;48.830;9.116;2022-07-22T10:25:48;0.40;;;0.40;;
13552;SDS011;6847;48.830;9.116;2022-07-22T10:28:37;0.40;;;0.40;;
13552;SDS011;6847;48.830;9.116;2022-07-22T10:31:23;0.30;;;0.30;;
13552;SDS011;6847;48.830;9.116;2022-07-22T10:34:09;0.40;;;0.40;;
13552;SDS011;6847;48.830;9.116;2022-07-22T10:36:57;0.35;;;0.35;;
13552;SDS011;6847;48.830;9.116;2022-07-22T10:43:12;0.50;;;0.50;;
13552;SDS011;6847;48.830;9.116;2022-07-22T10:46:08;0.40;;;0.40;;
13552;SDS011;6847;48.830;9.116;2022-07-22T10:48:57;0.50;;;0.50;;
13552;SDS011;6847;48.830;9.116;2022-07-22T10:55:17;0.40;;;0.40;;
13552;SDS011;6847;48.830;9.116;2022-07-22T11:01:30;0.30;;;0.30;;
13552;SDS011;6847;48.830;9.116;2022-07-22T11:04:20;0.45;;;0.45;;
13552;SDS011;6847;48.830;9.116;2022-07-22T11:07:17;0.30;;;0.30;;
13552;SDS011;6847;48.830;9.116;2022-07-22T11:10:09;0.30;;;0.30;;
13552;SDS011;6847;48.830;9.116;2022-07-22T11:13:00;0.50;;;0.50;;
13552;SDS011;6847;48.830;9.116;2022-07-22T11:15:46;0.40;;;0.40;;
13552;SDS011;6847;48.830;9.116;2022-07-22T11:18:43;0.40;;;0.40;;
13552;SDS011;6847;48.830;9.116;2022-07-22T11:21:31;0.40;;;0.40;;
13552;SDS011;6847;48.830;9.116;2022-07-22T11:24:22;0.43;;;0.43;;
13552;SDS011;6847;48.830;9.116;2022-07-22T11:27:09;0.40;;;0.40;;
13552;SDS011;6847;48.830;9.116;2022-07-22T11:29:59;0.40;;;0.40;;
13552;SDS011;6847;48.830;9.116;2022-07-22T11:32:48;0.30;;;0.30;;
13552;SDS011;6847;48.830;9.116;2022-07-22T11:35:34;0.30;;;0.30;;
13552;SDS011;6847;48.830;9.116;2022-07-22T11:38:22;0.40;;;0.40;;
13552;SDS011;6847;48.830;9.116;2022-07-22T11:41:10;0.30;;;0.30;;
13552;SDS011;6847;48.830;9.116;2022-07-22T11:43:57;0.38;;;0.38;;
13552;SDS011;6847;48.830;9.116;2022-07-22T11:46:43;0.50;;;0.50;;
13552;SDS011;6847;48.830;9.116;2022-07-22T11:49:29;0.32;;;0.32;;
13552;SDS011;6847;48.830;9.116;2022-07-22T11:52:17;0.40;;;0.40;;
13552;SDS011;6847;48.830;9.116;2022-07-22T11:55:05;0.40;;;0.40;;
13552;SDS011;6847;48.830;9.116;2022-07-22T11:58:01;0.40;;;0.40;;
13552;SDS011;6847;48.830;9.116;2022-07-22T12:00:47;0.20;;;0.20;;
13552;SDS011;6847;48.830;9.116;2022-07-22T12:03:36;0.32;;;0.32;;
13552;SDS011;6847;48.830;9.116;2022-07-22T12:06:25;0.20;;;0.20;;
13552;SDS011;6847;48.830;9.116;2022-07-22T12:09:14;0.40;;;0.40;;
13552;SDS011;6847;48.830;9.116;2022-07-22T12:12:02;0.40;;;0.40;;
13552;SDS011;6847;48.830;9.116;2022-07-22T12:14:50;0.40;;;0.40;;
13552;SDS011;6847;48.830;9.116;2022-07-22T12:17:42;0.40;;;0.40;;
13552;SDS011;6847;48.830;9.116;2022-07-22T12:20:28;0.40;;;0.40;;
13552;SDS011;6847;48.830;9.116;2022-07-22T12:23:17;0.38;;;0.38;;
13552;SDS011;6847;48.830;9.116;2022-07-22T12:26:02;0.47;;;0.47;;
13552;SDS011;6847;48.830;9.116;2022-07-22T12:28:49;0.50;;;0.50;;
13552;SDS011;6847;48.830;9.116;2022-07-22T12:31:57;0.30;;;0.30;;
13552;SDS011;6847;48.830;9.116;2022-07-22T12:34:46;0.40;;;0.40;;
13552;SDS011;6847;48.830;9.116;2022-07-22T12:37:43;0.20;;;0.20;;
13552;SDS011;6847;48.830;9.116;2022-07-22T12:40:31;0.30;;;0.30;;
13552;SDS011;6847;48.830;9.116;2022-07-22T12:43:21;0.40;;;0.40;;
13552;SDS011;6847;48.830;9.116;2022-07-22T12:46:13;0.40;;;0.40;;
13552;SDS011;6847;48.830;9.116;2022-07-22T12:49:02;0.47;;;0.47;;
13552;SDS011;6847;48.830;9.116;2022-07-22T12:52:04;0.55;;;0.55;;
13552;SDS011;6847;48.830;9.116;2022-07-22T12:54:54;0.50;;;0.50;;
13552;SDS011;6847;48.830;9.116;2022-07-22T12:57:39;0.50;;;0.50;;
13552;SDS011;6847;48.830;9.116;2022-07-22T13:00:25;0.50;;;0.50;;
13552;SDS011;6847;48.830;9.116;2022-07-22T13:03:12;0.50;;;0.50;;
13552;SDS011;6847;48.830;9.116;2022-07-22T13:06:06;0.50;;;0.50;;
13552;SDS011;6847;48.830;9.116;2022-07-22T13:08:55;0.50;;;0.50;;
13552;SDS011;6847;48.830;9.116;2022-07-22T13:11:44;0.52;;;0.52;;
13552;SDS011;6847;48.830;9.116;2022-07-22T13:14:29;0.40;;;0.40;;
13552;SDS011;6847;48.830;9.116;2022-07-22T13:17:16;0.40;;;0.40;;
13552;SDS011;6847;48.830;9.116;2022-07-22T13:20:04;0.52;;;0.52;;
13552;SDS011;6847;48.830;9.116;2022-07-22T13:22:54;0.60;;;0.60;;
13552;SDS011;6847;48.830;9.116;2022-07-22T13:25:40;0.82;;;0.73;;
13552;SDS011;6847;48.830;9.116;2022-07-22T13:28:26;0.40;;;0.40;;
13552;SDS011;6847;48.830;9.116;2022-07-22T13:31:11;0.40;;;0.40;;
13552;SDS011;6847;48.830;9.116;2022-07-22T13:33:56;0.70;;;0.70;;
13552;SDS011;6847;48.830;9.116;2022-07-22T13:36:42;0.50;;;0.50;;
13552;SDS011;6847;48.830;9.116;2022-07-22T13:39:31;0.60;;;0.60;;
13552;SDS011;6847;48.830;9.116;2022-07-22T13:42:17;0.55;;;0.55;;
13552;SDS011;6847;48.830;9.116;2022-07-22T13:45:04;0.63;;;0.63;;
13552;SDS011;6847;48.830;9.116;2022-07-22T13:47:51;0.52;;;0.52;;
13552;SDS011;6847;48.830;9.116;2022-07-22T13:50:36;0.60;;;0.60;;
13552;SDS011;6847;48.830;9.116;2022-07-22T13:53:23;0.70;;;0.70;;
13552;SDS011;6847;48.830;9.116;2022-07-22T13:56:11;0.80;;;0.80;;
13552;SDS011;6847;48.830;9.116;2022-07-22T13:58:56;0.65;;;0.65;;
13552;SDS011;6847;48.830;9.116;2022-07-22T14:01:43;0.60;;;0.60;;
13552;SDS011;6847;48.830;9.116;2022-07-22T14:04:29;0.82;;;0.82;;
13552;SDS011;6847;48.830;9.116;2022-07-22T14:07:17;0.88;;;0.88;;
13552;SDS011;6847;48.830;9.116;2022-07-22T14:10:03;0.68;;;0.68;;
13552;SDS011;6847;48.830;9.116;2022-07-22T14:12:51;0.50;;;0.50;;
13552;SDS011;6847;48.830;9.116;2022-07-22T14:15:37;0.70;;;0.70;;
13552;SDS011;6847;48.830;9.116;2022-07-22T14:18:22;0.80;;;0.80;;
13552;SDS011;6847;48.830;9.116;2022-07-22T14:21:08;0.50;;;0.50;;
13552;SDS011;6847;48.830;9.116;2022-07-22T14:23:57;0.70;;;0.70;;
13552;SDS011;6847;48.830;9.116;2022-07-22T14:26:42;0.60;;;0.60;;
13552;SDS011;6847;48.830;9.116;2022-07-22T14:29:32;0.50;;;0.50;;
13552;SDS011;6847;48.830;9.116;2022-07-22T14:32:19;0.57;;;0.57;;
13552;SDS011;6847;48.830;9.116;2022-07-22T14:35:05;0.70;;;0.70;;
13552;SDS011;6847;48.830;9.116;2022-07-22T14:37:52;0.60;;;0.60;;
13552;SDS011;6847;48.830;9.116;2022-07-22T14:40:42;0.50;;;0.50;;
13552;SDS011;6847;48.830;9.116;2022-07-22T14:43:27;0.60;;;0.60;;
13552;SDS011;6847;48.830;9.116;2022-07-22T14:46:14;0.52;;;0.52;;
13552;SDS011;6847;48.830;9.116;2022-07-22T14:49:00;0.80;;;0.80;;
13552;SDS011;6847;48.830;9.116;2022-07-22T14:51:46;0.70;;;0.70;;
13552;SDS011;6847;48.830;9.116;2022-07-22T14:54:35;0.80;;;0.80;;
13552;SDS011;6847;48.830;9.116;2022-07-22T14:57:22;0.82;;;0.82;;
13552;SDS011;6847;48.830;9.116;2022-07-22T15:00:11;0.60;;;0.60;;
13552;SDS011;6847;48.830;9.116;2022-07-22T15:03:01;0.75;;;0.75;;
13552;SDS011;6847;48.830;9.116;2022-07-22T15:05:49;0.80;;;0.80;;
13552;SDS011;6847;48.830;9.116;2022-07-22T15:08:37;0.75;;;0.75;;
13552;SDS011;6847;48.830;9.116;2022-07-22T15:11:25;0.70;;;0.70;;
13552;SDS011;6847;48.830;9.116;2022-07-22T15:14:18;0.50;;;0.50;;
13552;SDS011;6847;48.830;9.116;2022-07-22T15:17:03;0.77;;;0.77;;
13552;SDS011;6847;48.830;9.116;2022-07-22T15:19:52;0.50;;;0.50;;
13552;SDS011;6847;48.830;9.116;2022-07-22T15:26:04;0.88;;;0.88;;
13552;SDS011;6847;48.830;9.116;2022-07-22T15:28:55;0.90;;;0.90;;
13552;SDS011;6847;48.830;9.116;2022-07-22T15:31:40;0.82;;;0.82;;
13552;SDS011;6847;48.830;9.116;2022-07-22T15:34:36;0.90;;;0.90;;
13552;SDS011;6847;48.830;9.116;2022-07-22T15:37:23;1.13;;;1.05;;
13552;SDS011;6847;48.830;9.116;2022-07-22T15:40:09;0.57;;;0.57;;
13552;SDS011;6847;48.830;9.116;2022-07-22T15:42:56;0.57;;;0.57;;
13552;SDS011;6847;48.830;9.116;2022-07-22T15:45:42;0.90;;;0.90;;
13552;SDS011;6847;48.830;9.116;2022-07-22T15:48:35;0.65;;;0.65;;
13552;SDS011;6847;48.830;9.116;2022-07-22T15:51:23;0.55;;;0.55;;
13552;SDS011;6847;48.830;9.116;2022-07-22T15:54:13;0.85;;;0.85;;
13552;SDS011;6847;48.830;9.116;2022-07-22T15:56:59;0.63;;;0.63;;
13552;SDS011;6847;48.830;9.116;2022-07-22T15:59:58;0.70;;;0.70;;
13552;SDS011;6847;48.830;9.116;2022-07-22T16:02:44;0.57;;;0.57;;
13552;SDS011;6847;48.830;9.116;2022-07-22T16:05:31;0.50;;;0.50;;
13552;SDS011;6847;48.830;9.116;2022-07-22T16:08:16;0.60;;;0.60;;
13552;SDS011;6847;48.830;9.116;2022-07-22T16:11:05;0.75;;;0.75;;
13552;SDS011;6847;48.830;9.116;2022-07-22T16:13:53;0.70;;;0.70;;
13552;SDS011;6847;48.830;9.116;2022-07-22T16:16:39;1.30;;;0.60;;
13552;SDS011;6847;48.830;9.116;2022-07-22T16:19:25;0.57;;;0.57;;
13552;SDS011;6847;48.830;9.116;2022-07-22T16:22:12;0.40;;;0.40;;
13552;SDS011;6847;48.830;9.116;2022-07-22T16:24:58;0.57;;;0.57;;
13552;SDS011;6847;48.830;9.116;2022-07-22T16:27:45;0.60;;;0.60;;
13552;SDS011;6847;48.830;9.116;2022-07-22T16:30:31;0.70;;;0.70;;
13552;SDS011;6847;48.830;9.116;2022-07-22T16:33:20;0.60;;;0.60;;
13552;SDS011;6847;48.830;9.116;2022-07-22T16:36:09;0.55;;;0.55;;
13552;SDS011;6847;48.830;9.116;2022-07-22T16:38:55;0.70;;;0.70;;
13552;SDS011;6847;48.830;9.116;2022-07-22T16:41:49;0.63;;;0.63;;
13552;SDS011;6847;48.830;9.116;2022-07-22T16:44:36;0.40;;;0.40;;
13552;SDS011;6847;48.830;9.116;2022-07-22T16:47:24;0.57;;;0.57;;
13552;SDS011;6847;48.830;9.116;2022-07-22T16:50:13;0.70;;;0.70;;
13552;SDS011;6847;48.830;9.116;2022-07-22T16:52:59;0.75;;;0.75;;
13552;SDS011;6847;48.830;9.116;2022-07-22T16:55:45;0.70;;;0.70;;
13552;SDS011;6847;48.830;9.116;2022-07-22T16:58:32;0.50;;;0.50;;
13552;SDS011;6847;48.830;9.116;2022-07-22T17:01:21;0.90;;;0.90;;
13552;SDS011;6847;48.830;9.116;2022-07-22T17:04:06;0.70;;;0.70;;
13552;SDS011;6847;48.830;9.116;2022-07-22T17:06:55;0.70;;;0.70;;
13552;SDS011;6847;48.830;9.116;2022-07-22T17:09:42;0.50;;;0.50;;
13552;SDS011;6847;48.830;9.116;2022-07-22T17:12:31;0.60;;;0.60;;
13552;SDS011;6847;48.830;9.116;2022-07-22T17:15:20;0.70;;;0.70;;
13552;SDS011;6847;48.830;9.116;2022-07-22T17:18:20;0.60;;;0.60;;
13552;SDS011;6847;48.830;9.116;2022-07-22T17:21:06;0.52;;;0.52;;
13552;SDS011;6847;48.830;9.116;2022-07-22T17:23:56;0.30;;;0.30;;